Time;durP1;ratioP1;P1;durP2;ratioP2;P2;SDS_P1;SDS_P2;PMS_P1;PMS_P2;Temp;Humidity;BMP_temperature;BMP_pressure;BME280_temperature;BME280_humidity;BME280_pressure;Samples;Min_cycle;Max_cycle;Signal;HPM_P1;HPM_P2
2023/09/06 00:01:20;;;;;;;3.00;1.40;;;24.70;54.90;;;;;;2506207;55;20986;-65
2023/09/06 00:03:46;;;;;;;2.25;1.02;;;24.70;54.30;;;;;;2512056;55;21002;-67
2023/09/06 00:06:12;;;;;;;3.78;1.17;;;24.60;54.40;;;;;;2280404;55;20979;-66
2023/09/06 00:08:39;;;;;;;2.72;1.10;;;24.60;54.40;;;;;;2512935;55;20981;-68
2023/09/06 00:11:05;;;;;;;2.65;1.20;;;24.50;54.40;;;;;;2513219;55;20963;-66
2023/09/06 00:13:33;;;;;;;2.37;1.15;;;24.40;54.40;;;;;;2280410;55;21039;-66
2023/09/06 00:16:00;;;;;;;2.53;1.10;;;24.40;54.30;;;;;;2512879;55;21055;-67
2023/09/06 00:18:37;;;;;;;2.65;1.23;;;24.30;54.30;;;;;;2280383;55;21045;-69
2023/09/06 00:21:05;;;;;;;2.67;1.20;;;24.20;54.10;;;;;;2513652;55;20924;-68
2023/09/06 00:23:32;;;;;;;3.00;1.30;;;24.20;54.40;;;;;;2512940;55;21015;-66
2023/09/06 00:25:58;;;;;;;2.80;1.30;;;24.10;54.30;;;;;;2513387;55;21192;-66
2023/09/06 00:28:25;;;;;;;2.75;1.35;;;24.00;54.40;;;;;;2513145;55;20979;-65
2023/09/06 00:30:55;;;;;;;3.28;1.20;;;23.90;54.40;;;;;;2280257;55;21118;-66
2023/09/06 00:33:21;;;;;;;2.35;1.23;;;23.90;54.40;;;;;;2513557;55;20935;-65
2023/09/06 00:35:47;;;;;;;2.08;1.00;;;23.80;54.40;;;;;;2512542;55;20984;-65
2023/09/06 00:38:17;;;;;;;2.70;1.20;;;23.70;54.30;;;;;;2513082;55;21046;-65
2023/09/06 00:40:49;;;;;;;2.55;1.10;;;23.60;54.20;;;;;;2279912;55;21472;-68
2023/09/06 00:43:17;;;;;;;2.92;1.10;;;23.50;54.10;;;;;;2280326;55;21420;-65
2023/09/06 00:45:45;;;;;;;2.10;1.00;;;23.50;54.30;;;;;;2512732;55;21711;-66
2023/09/06 00:48:22;;;;;;;2.50;1.12;;;23.40;54.30;;;;;;2513440;55;20959;-66
2023/09/06 00:50:55;;;;;;;2.33;1.00;;;23.30;54.30;;;;;;2280683;55;21541;-67
2023/09/06 00:53:25;;;;;;;2.30;0.90;;;23.20;54.30;;;;;;2282695;55;21026;-65
2023/09/06 00:55:51;;;;;;;2.40;1.15;;;23.10;54.30;;;;;;2504179;55;20991;-65
2023/09/06 00:58:19;;;;;;;2.10;0.93;;;23.00;54.30;;;;;;2513665;55;20963;-65
2023/09/06 01:00:46;;;;;;;2.55;1.15;;;22.80;54.20;;;;;;2509735;55;21496;-66
2023/09/06 01:03:13;;;;;;;3.30;1.48;;;22.80;54.30;;;;;;2280142;55;20931;-65
2023/09/06 01:06:39;;;;;;;2.40;1.10;;;22.70;54.40;;;;;;2279872;55;21043;-65
2023/09/06 01:09:06;;;;;;;3.85;1.15;;;22.60;54.20;;;;;;2280872;55;20948;-68
2023/09/06 01:11:37;;;;;;;3.05;1.25;;;22.50;54.40;;;;;;2280613;55;21443;-64
2023/09/06 01:14:03;;;;;;;4.03;1.20;;;22.30;54.50;;;;;;2280437;55;21067;-65
2023/09/06 01:16:48;;;;;;;2.80;1.10;;;22.30;54.60;;;;;;2280051;55;20987;-65
2023/09/06 01:19:18;;;;;;;2.50;1.27;;;22.20;54.30;;;;;;2513436;55;21327;-65
2023/09/06 01:23:39;;;;;;;3.00;1.52;;;22.10;54.70;;;;;;2280626;55;21059;-65
2023/09/06 01:26:06;;;;;;;2.20;1.00;;;22.00;54.70;;;;;;2512718;55;21790;-65
2023/09/06 01:28:33;;;;;;;3.03;1.40;;;21.90;55.00;;;;;;2513117;55;21981;-65
2023/09/06 01:31:00;;;;;;;2.40;1.08;;;21.80;55.20;;;;;;2512515;55;20951;-65
2023/09/06 01:33:29;;;;;;;2.75;1.33;;;21.70;55.20;;;;;;2280477;55;20979;-66
2023/09/06 01:35:56;;;;;;;2.70;1.25;;;21.60;55.30;;;;;;2280975;55;21500;-66
2023/09/06 01:38:22;;;;;;;2.30;1.20;;;21.60;55.30;;;;;;2513965;55;21027;-65
2023/09/06 01:40:49;;;;;;;2.70;1.10;;;21.50;55.30;;;;;;2280037;55;22026;-66
2023/09/06 01:43:15;;;;;;;3.70;1.55;;;21.50;55.30;;;;;;2281035;55;20983;-65
2023/09/06 01:45:51;;;;;;;4.37;1.50;;;21.40;55.50;;;;;;2512642;55;21060;-65
2023/09/06 01:48:18;;;;;;;2.70;1.30;;;21.40;55.70;;;;;;2513471;55;21458;-64
2023/09/06 01:50:45;;;;;;;2.47;1.15;;;21.30;55.70;;;;;;2512697;55;20932;-66
2023/09/06 01:53:14;;;;;;;2.60;1.20;;;21.20;55.60;;;;;;2513848;55;20959;-65
2023/09/06 01:55:43;;;;;;;2.60;1.20;;;21.20;55.60;;;;;;2280054;55;21442;-66
2023/09/06 01:58:11;;;;;;;2.65;1.17;;;21.10;55.50;;;;;;2513783;54;20984;-66
2023/09/06 02:00:37;;;;;;;2.85;1.20;;;21.00;55.60;;;;;;2280162;55;20935;-65
2023/09/06 02:03:06;;;;;;;2.75;1.20;;;21.00;55.60;;;;;;2512787;55;21759;-65
2023/09/06 02:05:33;;;;;;;3.10;1.62;;;20.90;55.60;;;;;;2280724;55;22418;-65
2023/09/06 02:08:00;;;;;;;4.87;1.65;;;20.90;55.70;;;;;;2280734;55;21051;-65
2023/09/06 02:10:27;;;;;;;4.07;1.30;;;20.80;55.70;;;;;;2280502;55;21349;-65
2023/09/06 02:12:53;;;;;;;2.60;1.17;;;20.70;55.70;;;;;;2281062;55;20987;-65
2023/09/06 02:15:19;;;;;;;2.70;1.20;;;20.60;55.70;;;;;;2513675;54;21791;-65
2023/09/06 02:17:45;;;;;;;3.05;1.20;;;20.60;55.80;;;;;;2513454;55;20931;-65
2023/09/06 02:20:20;;;;;;;2.70;1.40;;;20.60;55.90;;;;;;2508382;55;21096;-70
2023/09/06 02:22:51;;;;;;;3.20;1.33;;;20.50;55.90;;;;;;2276159;55;20990;-66
2023/09/06 02:25:21;;;;;;;3.28;1.70;;;20.50;56.10;;;;;;2280947;55;20959;-65
2023/09/06 02:27:47;;;;;;;4.57;1.55;;;20.40;56.10;;;;;;2512124;55;21404;-64
2023/09/06 02:30:14;;;;;;;2.62;1.33;;;20.40;56.20;;;;;;2280650;55;20987;-68
2023/09/06 02:32:40;;;;;;;3.50;1.65;;;20.40;56.30;;;;;;2280435;55;21134;-66
2023/09/06 02:35:08;;;;;;;3.50;1.58;;;20.40;56.30;;;;;;2279929;55;21015;-65
2023/09/06 02:37:35;;;;;;;4.47;1.52;;;20.40;56.40;;;;;;2280588;55;21021;-69
2023/09/06 02:40:06;;;;;;;3.17;1.60;;;20.30;56.30;;;;;;2513341;55;20931;-65
2023/09/06 02:42:36;;;;;;;3.90;1.67;;;20.30;56.40;;;;;;2280702;55;21509;-67
2023/09/06 02:45:05;;;;;;;2.60;1.20;;;20.30;56.40;;;;;;2501710;55;21917;-68
2023/09/06 02:47:34;;;;;;;4.57;1.30;;;20.30;56.50;;;;;;2512770;55;21041;-64
2023/09/06 02:50:05;;;;;;;3.33;1.33;;;20.30;56.50;;;;;;2274325;55;20975;-65
2023/09/06 02:52:35;;;;;;;3.20;1.60;;;20.30;56.50;;;;;;2512191;55;20979;-66
2023/09/06 02:55:04;;;;;;;3.20;1.58;;;20.30;56.60;;;;;;2279934;55;21051;-67
2023/09/06 02:57:34;;;;;;;3.70;1.70;;;20.30;56.70;;;;;;2512758;55;20927;-68
2023/09/06 03:00:01;;;;;;;3.25;1.70;;;20.20;56.80;;;;;;2282561;55;20947;-67
2023/09/06 03:02:27;;;;;;;3.40;1.55;;;20.30;56.90;;;;;;2280309;55;21091;-66
2023/09/06 03:05:03;;;;;;;3.55;1.50;;;20.30;56.90;;;;;;2512287;55;21038;-65
2023/09/06 03:07:31;;;;;;;3.60;1.60;;;20.30;56.90;;;;;;2513823;55;21463;-65
2023/09/06 03:09:58;;;;;;;3.08;1.40;;;20.20;56.80;;;;;;2513007;55;21028;-65
2023/09/06 03:12:24;;;;;;;3.42;1.52;;;20.20;56.90;;;;;;2280545;55;20991;-64
2023/09/06 03:14:51;;;;;;;3.00;1.35;;;20.20;56.90;;;;;;2512434;55;21733;-68
2023/09/06 03:17:22;;;;;;;3.75;1.70;;;20.20;56.90;;;;;;2278602;55;21016;-65
2023/09/06 03:19:53;;;;;;;2.92;1.55;;;20.10;57.00;;;;;;2277444;56;20941;-65
2023/09/06 03:22:22;;;;;;;2.92;1.50;;;20.10;57.10;;;;;;2281053;55;21433;-67
2023/09/06 03:24:55;;;;;;;2.67;1.55;;;20.10;57.10;;;;;;2280106;55;21023;-65
2023/09/06 03:27:22;;;;;;;3.75;2.00;;;20.00;57.10;;;;;;2276206;55;20984;-67
2023/09/06 03:29:53;;;;;;;2.85;1.40;;;20.00;57.30;;;;;;2512386;55;20940;-66
2023/09/06 03:32:20;;;;;;;2.37;1.10;;;20.00;57.40;;;;;;2512944;55;21047;-64
2023/09/06 03:34:49;;;;;;;3.33;1.92;;;20.00;57.40;;;;;;2279957;55;21062;-65
2023/09/06 03:37:18;;;;;;;2.58;1.30;;;19.90;57.20;;;;;;2513702;55;21043;-65
2023/09/06 03:39:44;;;;;;;3.12;1.60;;;19.90;57.80;;;;;;2258170;56;21531;-64
2023/09/06 03:42:14;;;;;;;4.30;1.55;;;19.90;57.30;;;;;;2280357;55;20968;-65
2023/09/06 03:44:42;;;;;;;2.75;1.20;;;19.90;57.30;;;;;;2280133;55;20940;-66
2023/09/06 03:47:13;;;;;;;3.65;1.45;;;19.80;57.20;;;;;;2512170;55;21219;-66
2023/09/06 03:49:40;;;;;;;3.70;1.40;;;19.80;57.40;;;;;;2512528;55;21498;-65
2023/09/06 03:52:07;;;;;;;3.08;1.20;;;19.70;57.30;;;;;;2511746;55;21030;-65
2023/09/06 03:54:34;;;;;;;3.33;1.83;;;19.70;57.30;;;;;;2513131;55;21016;-64
2023/09/06 03:57:13;;;;;;;2.80;1.33;;;19.70;57.30;;;;;;2280074;55;21003;-65
2023/09/06 03:59:40;;;;;;;3.10;1.20;;;19.60;57.20;;;;;;2273986;56;21575;-66
2023/09/06 04:02:08;;;;;;;2.85;1.42;;;19.60;57.30;;;;;;2279465;55;21039;-66
2023/09/06 04:04:34;;;;;;;3.08;1.25;;;19.60;57.40;;;;;;2511764;55;20940;-65
2023/09/06 04:07:01;;;;;;;2.90;1.23;;;19.50;57.40;;;;;;2510797;55;20967;-65
2023/09/06 04:09:37;;;;;;;2.90;1.40;;;19.50;57.40;;;;;;2278803;55;20955;-67
2023/09/06 04:12:05;;;;;;;3.20;1.50;;;19.50;57.50;;;;;;2279774;55;21034;-65
2023/09/06 04:14:35;;;;;;;4.60;1.50;;;19.40;57.30;;;;;;2512438;54;21031;-65
2023/09/06 04:17:07;;;;;;;2.50;1.27;;;19.40;57.40;;;;;;2511956;55;20947;-66
2023/09/06 04:19:34;;;;;;;2.95;1.42;;;19.30;57.40;;;;;;2512923;55;20968;-66
2023/09/06 04:22:01;;;;;;;2.87;1.30;;;19.30;57.40;;;;;;2512587;55;21440;-66
2023/09/06 04:24:28;;;;;;;3.00;1.58;;;19.20;57.40;;;;;;2280033;55;20987;-69
2023/09/06 04:26:54;;;;;;;3.55;1.58;;;19.20;57.50;;;;;;2512258;55;20951;-64
2023/09/06 04:29:21;;;;;;;2.97;1.48;;;19.10;57.50;;;;;;2280514;55;20987;-64
2023/09/06 04:31:49;;;;;;;2.90;1.40;;;19.10;57.60;;;;;;2279407;55;21939;-67
2023/09/06 04:34:16;;;;;;;2.67;1.23;;;19.10;57.60;;;;;;2280688;55;21083;-65
2023/09/06 04:36:42;;;;;;;3.47;1.30;;;19.00;57.50;;;;;;2280097;55;21007;-67
2023/09/06 04:39:09;;;;;;;2.70;1.37;;;19.00;57.50;;;;;;2513320;55;21578;-64
2023/09/06 04:41:36;;;;;;;2.85;1.50;;;18.90;57.40;;;;;;2513387;55;21035;-65
2023/09/06 04:44:03;;;;;;;3.17;1.33;;;18.90;57.50;;;;;;2513022;55;20955;-65
2023/09/06 04:46:29;;;;;;;3.12;1.58;;;18.80;57.40;;;;;;2513410;55;20947;-65
2023/09/06 04:48:55;;;;;;;2.85;1.40;;;18.80;57.50;;;;;;2280037;55;20923;-65
2023/09/06 04:51:23;;;;;;;2.95;1.48;;;18.80;57.50;;;;;;2513690;55;20987;-65
2023/09/06 04:53:49;;;;;;;2.70;1.30;;;18.70;57.50;;;;;;2512566;55;21035;-64
2023/09/06 04:56:16;;;;;;;2.47;1.25;;;18.70;57.60;;;;;;2279806;55;21066;-66
2023/09/06 04:58:42;;;;;;;2.95;1.40;;;18.60;57.60;;;;;;2513185;55;20991;-66
2023/09/06 05:01:10;;;;;;;2.72;1.30;;;18.60;57.70;;;;;;2280160;55;20995;-68
2023/09/06 05:03:38;;;;;;;2.75;1.20;;;18.50;57.60;;;;;;2280944;55;21866;-67
2023/09/06 05:06:04;;;;;;;3.30;1.70;;;18.50;57.70;;;;;;2513058;55;21051;-72
2023/09/06 05:08:32;;;;;;;3.12;1.50;;;18.50;57.80;;;;;;2283445;55;20975;-67
2023/09/06 05:10:58;;;;;;;2.65;1.30;;;18.40;57.80;;;;;;2503314;55;21445;-69
2023/09/06 05:13:25;;;;;;;3.00;1.33;;;18.40;57.90;;;;;;2280409;55;20967;-66
2023/09/06 05:15:51;;;;;;;3.10;1.50;;;18.30;57.90;;;;;;2279358;55;21018;-67
2023/09/06 05:18:18;;;;;;;2.67;1.40;;;18.30;58.10;;;;;;2513343;55;20928;-65
2023/09/06 05:20:44;;;;;;;2.80;1.40;;;18.30;58.20;;;;;;2280500;55;20951;-69
2023/09/06 05:23:12;;;;;;;3.08;1.30;;;18.30;58.40;;;;;;2513517;55;21007;-67
2023/09/06 05:25:40;;;;;;;2.72;1.25;;;18.30;58.50;;;;;;2280618;55;21026;-66
2023/09/06 05:28:09;;;;;;;3.85;1.77;;;18.20;58.30;;;;;;2280571;55;21916;-65
2023/09/06 05:30:39;;;;;;;3.83;1.80;;;18.20;58.50;;;;;;2280868;55;20987;-65
2023/09/06 05:33:07;;;;;;;3.78;1.42;;;18.20;58.40;;;;;;2512515;55;21870;-67
2023/09/06 05:35:34;;;;;;;2.83;1.30;;;18.20;58.40;;;;;;2280511;55;21789;-65
2023/09/06 05:38:03;;;;;;;2.40;1.23;;;18.20;58.40;;;;;;2280118;55;20935;-65
2023/09/06 05:40:30;;;;;;;2.75;1.40;;;18.20;58.40;;;;;;2280850;55;21015;-66
2023/09/06 05:42:57;;;;;;;3.90;1.45;;;18.20;58.40;;;;;;2511836;55;21143;-65
2023/09/06 05:45:26;;;;;;;3.40;1.20;;;18.20;58.40;;;;;;2513107;55;20978;-64
2023/09/06 05:47:52;;;;;;;4.62;1.40;;;18.10;58.50;;;;;;2513620;55;21465;-68
2023/09/06 05:50:20;;;;;;;3.33;1.52;;;18.10;58.50;;;;;;2514284;55;20963;-65
2023/09/06 05:52:48;;;;;;;2.90;1.40;;;18.10;58.60;;;;;;2513676;55;21008;-65
2023/09/06 05:55:17;;;;;;;2.53;1.40;;;18.10;58.60;;;;;;2509766;55;21725;-66
2023/09/06 05:57:44;;;;;;;2.87;1.35;;;18.10;58.60;;;;;;2504757;54;21557;-65
2023/09/06 06:00:17;;;;;;;3.65;1.70;;;18.00;58.60;;;;;;2273426;55;21476;-65
2023/09/06 06:02:48;;;;;;;3.17;1.62;;;18.00;58.60;;;;;;2514315;55;21440;-65
2023/09/06 06:05:18;;;;;;;3.22;1.62;;;18.00;58.70;;;;;;2281794;55;20947;-66
2023/09/06 06:07:45;;;;;;;3.47;1.58;;;18.00;58.70;;;;;;2514108;55;21078;-66
2023/09/06 06:10:12;;;;;;;2.72;1.40;;;18.00;58.80;;;;;;2514159;55;21519;-65
2023/09/06 06:12:41;;;;;;;3.12;1.50;;;18.00;58.90;;;;;;2514042;55;20960;-65
2023/09/06 06:15:13;;;;;;;3.28;1.58;;;18.00;59.00;;;;;;2281018;55;20999;-67
2023/09/06 06:17:40;;;;;;;4.12;1.77;;;18.00;59.10;;;;;;2281223;55;20935;-65
2023/09/06 06:20:09;;;;;;;3.40;1.77;;;18.00;59.20;;;;;;2513783;55;20936;-66
2023/09/06 06:22:40;;;;;;;4.00;2.00;;;18.00;59.30;;;;;;2281979;55;20957;-65
2023/09/06 06:25:07;;;;;;;4.57;2.05;;;18.10;59.50;;;;;;2513890;54;20956;-66
2023/09/06 06:27:34;;;;;;;4.62;2.25;;;18.10;59.60;;;;;;2514120;55;20951;-67
2023/09/06 06:30:06;;;;;;;4.45;2.35;;;18.10;59.60;;;;;;2514403;55;20948;-68
2023/09/06 06:32:33;;;;;;;3.97;1.92;;;18.10;59.70;;;;;;2513511;55;21577;-65
2023/09/06 06:35:04;;;;;;;3.28;1.90;;;18.20;59.90;;;;;;2281142;55;20971;-65
2023/09/06 06:37:31;;;;;;;3.47;1.98;;;18.20;60.00;;;;;;2281052;55;20955;-67
2023/09/06 06:39:58;;;;;;;4.87;2.15;;;18.20;60.00;;;;;;2508516;55;20971;-67
2023/09/06 06:42:28;;;;;;;4.95;2.55;;;18.30;60.30;;;;;;2509352;55;20936;-67
2023/09/06 06:44:54;;;;;;;3.55;2.03;;;18.30;60.30;;;;;;2513998;55;20979;-65
2023/09/06 06:47:21;;;;;;;3.95;2.05;;;18.40;60.50;;;;;;2281578;55;21043;-65
2023/09/06 06:49:51;;;;;;;4.15;2.15;;;18.40;60.60;;;;;;2513973;55;20959;-65
2023/09/06 06:52:17;;;;;;;3.50;1.90;;;18.50;60.80;;;;;;2503369;55;20971;-68
2023/09/06 06:54:45;;;;;;;6.75;2.05;;;18.60;60.90;;;;;;2504646;55;21016;-68
2023/09/06 06:57:12;;;;;;;6.00;2.03;;;18.60;60.90;;;;;;2277192;55;20933;-66
2023/09/06 06:59:38;;;;;;;3.78;1.75;;;18.60;60.90;;;;;;2504078;55;21048;-65
2023/09/06 07:02:05;;;;;;;3.65;2.00;;;18.80;61.20;;;;;;2279653;55;21039;-67
2023/09/06 07:04:31;;;;;;;2.97;1.70;;;18.80;61.20;;;;;;2514244;55;21026;-66
2023/09/06 07:06:59;;;;;;;4.07;1.95;;;18.90;61.30;;;;;;2513919;55;20944;-65
2023/09/06 07:09:25;;;;;;;3.72;2.17;;;18.90;61.40;;;;;;2281085;55;21031;-66
2023/09/06 07:11:52;;;;;;;4.62;2.00;;;19.00;61.50;;;;;;2514098;55;20972;-66
2023/09/06 07:14:21;;;;;;;4.35;2.08;;;19.10;61.60;;;;;;2513866;55;21487;-66
2023/09/06 07:16:48;;;;;;;3.47;1.80;;;19.20;61.70;;;;;;2281054;55;21006;-66
2023/09/06 07:19:14;;;;;;;3.50;1.45;;;19.30;61.90;;;;;;2513970;55;20995;-68
2023/09/06 07:21:42;;;;;;;3.08;1.60;;;19.30;61.80;;;;;;2514088;55;21039;-66
2023/09/06 07:24:09;;;;;;;4.50;1.80;;;19.40;61.80;;;;;;2513879;55;21067;-66
2023/09/06 07:26:36;;;;;;;4.03;2.28;;;19.50;61.90;;;;;;2512935;55;21028;-66
2023/09/06 07:29:03;;;;;;;3.75;1.80;;;19.60;62.00;;;;;;2280606;55;20971;-66
2023/09/06 07:31:29;;;;;;;3.28;1.90;;;19.70;62.20;;;;;;2278636;55;21576;-67
2023/09/06 07:33:55;;;;;;;5.57;2.28;;;19.70;62.20;;;;;;2511908;55;20995;-68
2023/09/06 07:36:23;;;;;;;4.57;2.25;;;19.80;62.40;;;;;;2281159;55;20927;-65
2023/09/06 07:38:54;;;;;;;3.50;1.95;;;19.90;62.60;;;;;;2514315;55;20979;-66
2023/09/06 07:41:21;;;;;;;3.97;1.95;;;20.00;62.60;;;;;;2281174;55;21098;-65
2023/09/06 07:43:48;;;;;;;3.15;1.83;;;20.10;62.60;;;;;;2513629;55;21039;-69
2023/09/06 07:46:16;;;;;;;3.95;2.00;;;20.20;62.70;;;;;;2513868;55;20987;-66
2023/09/06 07:48:42;;;;;;;3.85;1.80;;;20.30;62.80;;;;;;2280983;55;20963;-66
2023/09/06 07:51:08;;;;;;;3.40;1.83;;;20.40;62.90;;;;;;2514030;55;21028;-66
2023/09/06 07:53:38;;;;;;;3.53;1.80;;;20.50;62.90;;;;;;2505779;55;21036;-66
2023/09/06 07:56:07;;;;;;;3.40;2.05;;;20.60;63.00;;;;;;2279554;55;21496;-65
2023/09/06 07:58:34;;;;;;;4.90;2.00;;;20.70;63.00;;;;;;2276009;56;21047;-69
2023/09/06 08:01:01;;;;;;;3.83;2.05;;;20.80;63.00;;;;;;2513039;55;20975;-65
2023/09/06 08:03:37;;;;;;;4.32;2.33;;;20.90;63.10;;;;;;2281466;55;21039;-66
2023/09/06 08:06:04;;;;;;;4.93;1.73;;;21.00;63.20;;;;;;2513534;55;21004;-65
2023/09/06 08:08:30;;;;;;;3.53;1.92;;;21.10;63.20;;;;;;2281372;55;21067;-69
2023/09/06 08:10:57;;;;;;;3.60;1.75;;;21.20;63.20;;;;;;2514253;54;21027;-67
2023/09/06 08:13:23;;;;;;;3.75;2.45;;;21.20;63.00;;;;;;2513932;55;20964;-65
2023/09/06 08:15:50;;;;;;;5.07;1.98;;;21.30;63.10;;;;;;2280845;55;21023;-67
2023/09/06 08:18:16;;;;;;;3.55;1.67;;;21.40;63.20;;;;;;2503696;55;20999;-66
2023/09/06 08:20:43;;;;;;;3.20;1.80;;;21.50;63.10;;;;;;2281246;55;20955;-66
2023/09/06 08:23:09;;;;;;;3.10;1.62;;;21.60;63.20;;;;;;2513646;55;20976;-67
2023/09/06 08:25:35;;;;;;;3.03;1.52;;;21.70;63.20;;;;;;2514067;55;21743;-70
2023/09/06 08:28:02;;;;;;;3.30;1.80;;;21.80;63.10;;;;;;2281841;55;21857;-66
2023/09/06 08:30:28;;;;;;;3.20;1.67;;;21.90;63.10;;;;;;2281551;55;20939;-70
2023/09/06 08:32:55;;;;;;;3.60;2.08;;;22.00;63.10;;;;;;2276393;56;21059;-68
2023/09/06 08:35:23;;;;;;;5.15;2.15;;;22.10;63.10;;;;;;2281055;55;21771;-68
2023/09/06 08:37:49;;;;;;;3.80;2.10;;;22.10;63.00;;;;;;2281340;55;20979;-66
2023/09/06 08:40:16;;;;;;;4.65;2.47;;;22.20;63.00;;;;;;2513994;55;21566;-69
2023/09/06 08:42:42;;;;;;;5.78;2.10;;;22.30;63.00;;;;;;2281285;55;20943;-67
2023/09/06 08:45:09;;;;;;;3.10;1.80;;;22.40;63.10;;;;;;2511945;55;21042;-67
2023/09/06 08:47:41;;;;;;;3.60;1.90;;;22.50;62.90;;;;;;2504573;55;20940;-66
2023/09/06 08:50:09;;;;;;;5.07;1.85;;;22.50;62.80;;;;;;2282083;55;21545;-70
2023/09/06 08:52:40;;;;;;;3.22;1.92;;;22.60;62.80;;;;;;2512562;55;22055;-67
2023/09/06 08:55:06;;;;;;;3.72;1.75;;;22.70;62.70;;;;;;2514250;55;20963;-67
2023/09/06 08:57:33;;;;;;;3.62;1.98;;;22.80;62.70;;;;;;2276692;56;21061;-69
2023/09/06 09:00:03;;;;;;;4.15;2.10;;;22.90;62.70;;;;;;2281647;55;20995;-69
2023/09/06 09:02:30;;;;;;;3.28;1.80;;;23.00;62.60;;;;;;2281222;55;21053;-67
2023/09/06 09:04:56;;;;;;;4.07;1.98;;;23.10;62.40;;;;;;2280804;55;20942;-68
2023/09/06 09:07:28;;;;;;;;;;;23.20;62.20;;;;;;2284706;55;20979;-67
2023/09/06 09:10:04;;;;;;;3.55;2.00;;;23.20;61.70;;;;;;2280544;55;20156;-67
2023/09/06 09:12:41;;;;;;;3.30;1.70;;;23.30;61.50;;;;;;2513742;55;20952;-67
2023/09/06 09:15:08;;;;;;;3.42;1.90;;;23.40;61.40;;;;;;2279694;55;22282;-66
2023/09/06 09:17:43;;;;;;;3.92;1.87;;;23.40;61.10;;;;;;2278005;55;22272;-66
2023/09/06 09:20:19;;;;;;;4.43;1.80;;;23.50;61.00;;;;;;2514316;55;21027;-67
2023/09/06 09:22:47;;;;;;;4.12;1.80;;;23.60;60.90;;;;;;2277612;55;21461;-67
2023/09/06 09:25:17;;;;;;;3.10;1.70;;;23.60;60.60;;;;;;2281331;55;21075;-66
2023/09/06 09:27:46;;;;;;;2.90;1.70;;;23.80;60.70;;;;;;2280195;55;21848;-66
2023/09/06 09:30:14;;;;;;;3.05;1.80;;;23.80;60.50;;;;;;2277431;55;20963;-67
2023/09/06 09:32:40;;;;;;;4.18;2.00;;;23.90;60.60;;;;;;2513358;55;20947;-66
2023/09/06 09:35:11;;;;;;;3.33;1.90;;;23.90;60.60;;;;;;2514949;55;20963;-67
2023/09/06 09:37:41;;;;;;;3.60;2.15;;;24.00;60.50;;;;;;2281661;55;21022;-71
2023/09/06 09:40:42;;;;;;;4.00;1.83;;;24.10;60.50;;;;;;2281483;55;21000;-67
2023/09/06 09:43:13;;;;;;;3.30;1.77;;;24.20;60.10;;;;;;2511448;55;21440;-68
2023/09/06 09:45:45;;;;;;;3.25;1.58;;;24.30;60.70;;;;;;2280911;55;20972;-67
2023/09/06 09:48:12;;;;;;;3.72;1.98;;;24.40;60.50;;;;;;2280937;55;21544;-66
2023/09/06 09:50:41;;;;;;;3.28;1.87;;;24.40;60.70;;;;;;2508998;55;20952;-67
2023/09/06 09:53:10;;;;;;;3.75;2.10;;;24.50;60.70;;;;;;2514613;55;20951;-68
2023/09/06 09:55:41;;;;;;;3.90;1.95;;;24.60;60.70;;;;;;2284136;55;21039;-69
2023/09/06 09:58:09;;;;;;;4.10;2.10;;;24.70;60.40;;;;;;2277701;55;20987;-68
2023/09/06 10:00:39;;;;;;;3.65;1.98;;;24.80;60.30;;;;;;2483300;55;20952;-67
2023/09/06 10:03:05;;;;;;;3.65;1.90;;;24.80;60.20;;;;;;2282939;55;21421;-66
2023/09/06 10:05:33;;;;;;;4.60;2.47;;;24.90;60.30;;;;;;2514301;55;20995;-67
2023/09/06 10:08:00;;;;;;;4.25;2.33;;;25.00;60.10;;;;;;2281523;55;21039;-67
2023/09/06 10:10:27;;;;;;;4.03;2.17;;;25.10;60.10;;;;;;2280974;55;20951;-67
2023/09/06 10:12:53;;;;;;;3.70;2.10;;;25.20;60.00;;;;;;2281398;55;20995;-68
2023/09/06 10:15:23;;;;;;;4.35;2.08;;;25.20;59.90;;;;;;2280762;55;21020;-66
2023/09/06 10:17:50;;;;;;;3.78;2.00;;;25.30;59.90;;;;;;2275325;55;20983;-66
2023/09/06 10:20:17;;;;;;;3.40;1.98;;;25.40;60.00;;;;;;2279392;55;21030;-70
2023/09/06 10:22:46;;;;;;;3.83;2.15;;;25.50;60.00;;;;;;2514834;55;21078;-68
2023/09/06 10:25:14;;;;;;;3.58;2.00;;;25.60;60.00;;;;;;2281151;55;20963;-67
2023/09/06 10:27:53;;;;;;;4.20;2.30;;;25.70;60.00;;;;;;2513761;55;20991;-66
2023/09/06 10:30:44;;;;;;;6.22;2.12;;;25.80;59.50;;;;;;2513940;55;20980;-67
2023/09/06 10:33:56;;;;;;;3.67;2.10;;;25.90;59.20;;;;;;2284008;55;21000;-65
2023/09/06 10:36:27;;;;;;;;;;;26.00;58.70;;;;;;2284332;55;21844;-66
2023/09/06 10:39:16;;;;;;;3.92;1.80;;;26.10;59.20;;;;;;2280295;55;20061;-67
2023/09/06 10:42:29;;;;;;;3.30;1.90;;;26.20;58.70;;;;;;2278332;56;20964;-69
2023/09/06 10:45:17;;;;;;;;;;;26.30;58.30;;;;;;2284432;55;21031;-65
2023/09/06 10:47:44;;;;;;;4.03;1.87;;;26.40;58.70;;;;;;2514107;55;20084;-68
2023/09/06 10:50:17;;;;;;;2.87;1.52;;;26.40;59.10;;;;;;2514313;55;20959;-70
2023/09/06 10:52:58;;;;;;;3.15;1.62;;;26.50;58.60;;;;;;2514271;55;21051;-67
2023/09/06 10:55:26;;;;;;;3.30;1.70;;;26.60;58.80;;;;;;2513327;55;21484;-69
2023/09/06 10:58:06;;;;;;;4.00;1.40;;;26.60;58.60;;;;;;2281766;55;20955;-67
2023/09/06 11:00:34;;;;;;;;;;;26.70;57.90;;;;;;2283710;55;20915;-69
2023/09/06 11:03:33;;;;;;;3.35;2.00;;;26.80;58.00;;;;;;2281126;55;20313;-67
2023/09/06 11:06:04;;;;;;;2.95;1.50;;;26.90;57.80;;;;;;2278679;55;20996;-68
2023/09/06 11:08:31;;;;;;;3.25;1.77;;;27.00;58.50;;;;;;2510111;55;20960;-71
2023/09/06 11:11:04;;;;;;;2.83;1.52;;;27.10;58.30;;;;;;2280347;55;21034;-68
2023/09/06 11:13:32;;;;;;;4.57;1.92;;;27.10;58.10;;;;;;2281026;55;20952;-70
2023/09/06 11:16:00;;;;;;;2.62;1.48;;;27.20;58.00;;;;;;2505131;55;21596;-69
2023/09/06 11:18:27;;;;;;;5.03;2.20;;;27.30;57.80;;;;;;2512014;54;21531;-68
2023/09/06 11:20:54;;;;;;;4.20;2.08;;;27.30;57.50;;;;;;2280585;55;21443;-70
2023/09/06 11:23:21;;;;;;;3.58;1.83;;;27.40;57.40;;;;;;2281017;55;20979;-68
2023/09/06 11:25:54;;;;;;;3.00;1.60;;;27.40;57.20;;;;;;2281469;55;20963;-70
2023/09/06 11:28:21;;;;;;;3.40;1.55;;;27.50;56.70;;;;;;2280299;55;21515;-68
2023/09/06 11:30:47;;;;;;;3.10;1.70;;;27.60;57.00;;;;;;2514008;55;20975;-69
2023/09/06 11:33:15;;;;;;;4.20;1.70;;;27.60;56.90;;;;;;2280072;55;20999;-68
2023/09/06 11:35:52;;;;;;;2.80;1.50;;;27.70;56.70;;;;;;2280340;55;21476;-68
2023/09/06 11:38:24;;;;;;;5.03;1.73;;;27.80;56.50;;;;;;2512836;55;21719;-66
2023/09/06 11:40:50;;;;;;;3.75;1.52;;;27.80;56.70;;;;;;2280755;55;21404;-68
2023/09/06 11:43:22;;;;;;;3.30;1.67;;;27.90;56.50;;;;;;2280622;55;20944;-67
2023/09/06 11:45:53;;;;;;;2.83;1.48;;;27.90;56.20;;;;;;2280991;55;21867;-68
2023/09/06 11:48:27;;;;;;;3.65;1.62;;;28.00;56.30;;;;;;2280305;55;21519;-71
2023/09/06 11:51:05;;;;;;;3.30;1.60;;;28.10;56.10;;;;;;2283769;55;21413;-71
2023/09/06 11:53:32;;;;;;;3.05;1.55;;;28.10;56.10;;;;;;2504614;55;20996;-69
2023/09/06 11:56:05;;;;;;;2.62;1.40;;;28.20;55.70;;;;;;2280377;55;21012;-68
2023/09/06 11:58:32;;;;;;;2.92;1.42;;;28.30;55.60;;;;;;2280699;55;21015;-68
2023/09/06 12:01:05;;;;;;;3.08;1.50;;;28.30;55.30;;;;;;2513537;55;21047;-67
2023/09/06 12:03:35;;;;;;;3.75;1.85;;;28.30;55.00;;;;;;2513161;55;20955;-68
2023/09/06 12:06:08;;;;;;;3.47;1.65;;;28.40;54.90;;;;;;2280940;55;20991;-69
2023/09/06 12:08:35;;;;;;;3.92;1.33;;;28.40;54.50;;;;;;2513022;55;21551;-67
2023/09/06 12:11:10;;;;;;;3.55;2.12;;;28.50;54.40;;;;;;2513315;55;21007;-67
2023/09/06 12:13:38;;;;;;;3.10;1.60;;;28.50;54.50;;;;;;2279816;55;20975;-68
2023/09/06 12:16:08;;;;;;;2.80;1.45;;;28.50;54.60;;;;;;2280203;55;21039;-68
2023/09/06 12:18:35;;;;;;;6.43;1.83;;;28.60;54.70;;;;;;2512881;55;21094;-70
2023/09/06 12:21:03;;;;;;;4.15;1.90;;;28.70;54.70;;;;;;2280999;55;21769;-66
2023/09/06 12:23:30;;;;;;;4.00;1.67;;;28.70;54.40;;;;;;2279335;55;20964;-68
2023/09/06 12:25:57;;;;;;;3.33;1.62;;;28.70;54.20;;;;;;2280378;55;20983;-68
2023/09/06 12:28:28;;;;;;;2.50;1.60;;;28.80;54.20;;;;;;2279995;55;20958;-70
2023/09/06 12:30:58;;;;;;;2.97;1.67;;;28.80;54.00;;;;;;2280271;55;20979;-68
2023/09/06 12:33:27;;;;;;;4.50;2.00;;;28.80;53.80;;;;;;2512719;55;20964;-67
2023/09/06 12:36:00;;;;;;;3.00;1.60;;;28.90;53.80;;;;;;2280790;55;21023;-67
2023/09/06 12:38:27;;;;;;;2.78;1.42;;;28.90;53.70;;;;;;2280853;55;20991;-68
2023/09/06 12:40:54;;;;;;;4.87;1.80;;;28.90;53.70;;;;;;2284104;55;20956;-68
2023/09/06 12:43:21;;;;;;;2.87;1.50;;;29.00;53.80;;;;;;2272467;55;21010;-68
2023/09/06 12:45:48;;;;;;;2.95;1.50;;;29.00;53.90;;;;;;2280052;55;21595;-67
2023/09/06 12:48:15;;;;;;;3.40;1.80;;;29.10;54.00;;;;;;2512916;55;20971;-70
2023/09/06 12:50:41;;;;;;;3.72;1.80;;;29.10;53.90;;;;;;2280308;55;20951;-68
2023/09/06 12:53:07;;;;;;;3.42;2.00;;;29.20;53.70;;;;;;2280618;55;20967;-68
2023/09/06 12:55:35;;;;;;;3.47;1.90;;;29.20;53.50;;;;;;2280243;55;21363;-68
2023/09/06 12:58:04;;;;;;;3.45;1.67;;;29.30;53.50;;;;;;2281309;55;20971;-68
2023/09/06 13:00:33;;;;;;;3.22;1.98;;;29.30;53.60;;;;;;2279762;55;21098;-67